sensor_id;sensor_type;location;lat;lon;timestamp;P1;durP1;ratioP1;P2;durP2;ratioP2
31728;SDS011;18309;43.658;1.312;2023-03-14T00:02:18;17.77;;;3.03;;
31728;SDS011;18309;43.658;1.312;2023-03-14T00:04:44;17.42;;;3.38;;
31728;SDS011;18309;43.658;1.312;2023-03-14T00:07:10;11.57;;;2.35;;
31728;SDS011;18309;43.658;1.312;2023-03-14T00:09:37;12.60;;;2.97;;
31728;SDS011;18309;43.658;1.312;2023-03-14T00:12:02;20.55;;;4.10;;
31728;SDS011;18309;43.658;1.312;2023-03-14T00:14:29;20.08;;;4.00;;
31728;SDS011;18309;43.658;1.312;2023-03-14T00:16:56;17.85;;;4.25;;
31728;SDS011;18309;43.658;1.312;2023-03-14T00:19:21;16.70;;;3.58;;
31728;SDS011;18309;43.658;1.312;2023-03-14T00:21:47;15.70;;;3.10;;
31728;SDS011;18309;43.658;1.312;2023-03-14T00:24:13;8.48;;;1.65;;
31728;SDS011;18309;43.658;1.312;2023-03-14T00:26:38;14.68;;;1.90;;
31728;SDS011;18309;43.658;1.312;2023-03-14T00:29:04;12.73;;;2.03;;
31728;SDS011;18309;43.658;1.312;2023-03-14T00:31:30;14.93;;;2.33;;
31728;SDS011;18309;43.658;1.312;2023-03-14T00:33:56;13.95;;;1.67;;
31728;SDS011;18309;43.658;1.312;2023-03-14T00:36:22;6.45;;;1.42;;
31728;SDS011;18309;43.658;1.312;2023-03-14T00:38:49;11.43;;;2.03;;
31728;SDS011;18309;43.658;1.312;2023-03-14T00:41:16;15.00;;;2.50;;
31728;SDS011;18309;43.658;1.312;2023-03-14T00:43:44;16.23;;;3.03;;
31728;SDS011;18309;43.658;1.312;2023-03-14T00:46:10;13.27;;;2.05;;
31728;SDS011;18309;43.658;1.312;2023-03-14T00:48:37;12.73;;;2.03;;
31728;SDS011;18309;43.658;1.312;2023-03-14T00:51:03;15.70;;;1.65;;
31728;SDS011;18309;43.658;1.312;2023-03-14T00:53:30;11.77;;;2.20;;
31728;SDS011;18309;43.658;1.312;2023-03-14T00:55:56;15.50;;;2.15;;
31728;SDS011;18309;43.658;1.312;2023-03-14T00:58:21;12.15;;;1.58;;
31728;SDS011;18309;43.658;1.312;2023-03-14T01:00:48;13.77;;;2.53;;
31728;SDS011;18309;43.658;1.312;2023-03-14T01:03:14;15.57;;;2.08;;
31728;SDS011;18309;43.658;1.312;2023-03-14T01:05:40;15.63;;;2.03;;
31728;SDS011;18309;43.658;1.312;2023-03-14T01:08:06;16.98;;;2.28;;
31728;SDS011;18309;43.658;1.312;2023-03-14T01:10:32;11.13;;;1.52;;
31728;SDS011;18309;43.658;1.312;2023-03-14T01:12:59;14.75;;;1.60;;
31728;SDS011;18309;43.658;1.312;2023-03-14T01:15:25;12.40;;;1.85;;
31728;SDS011;18309;43.658;1.312;2023-03-14T01:17:50;13.30;;;2.13;;
31728;SDS011;18309;43.658;1.312;2023-03-14T01:20:16;22.42;;;2.63;;
31728;SDS011;18309;43.658;1.312;2023-03-14T01:22:43;24.80;;;3.22;;
31728;SDS011;18309;43.658;1.312;2023-03-14T01:25:10;15.02;;;2.22;;
31728;SDS011;18309;43.658;1.312;2023-03-14T01:27:38;11.63;;;1.92;;
31728;SDS011;18309;43.658;1.312;2023-03-14T01:30:04;15.82;;;2.47;;
31728;SDS011;18309;43.658;1.312;2023-03-14T01:32:30;20.48;;;2.15;;
31728;SDS011;18309;43.658;1.312;2023-03-14T01:34:56;18.08;;;2.50;;
31728;SDS011;18309;43.658;1.312;2023-03-14T01:37:21;18.80;;;2.22;;
31728;SDS011;18309;43.658;1.312;2023-03-14T01:39:47;19.75;;;2.65;;
31728;SDS011;18309;43.658;1.312;2023-03-14T01:42:13;15.02;;;2.42;;
31728;SDS011;18309;43.658;1.312;2023-03-14T01:44:47;21.33;;;3.40;;
31728;SDS011;18309;43.658;1.312;2023-03-14T01:47:14;21.08;;;3.47;;
31728;SDS011;18309;43.658;1.312;2023-03-14T01:49:40;20.00;;;3.10;;
31728;SDS011;18309;43.658;1.312;2023-03-14T01:54:39;28.48;;;3.95;;
31728;SDS011;18309;43.658;1.312;2023-03-14T01:57:11;25.83;;;3.25;;
31728;SDS011;18309;43.658;1.312;2023-03-14T01:59:46;31.67;;;4.03;;
31728;SDS011;18309;43.658;1.312;2023-03-14T02:02:18;24.40;;;3.75;;
31728;SDS011;18309;43.658;1.312;2023-03-14T02:04:44;27.45;;;4.40;;
31728;SDS011;18309;43.658;1.312;2023-03-14T02:07:24;29.80;;;3.90;;
31728;SDS011;18309;43.658;1.312;2023-03-14T02:09:55;19.45;;;3.28;;
31728;SDS011;18309;43.658;1.312;2023-03-14T02:12:22;26.40;;;3.95;;
31728;SDS011;18309;43.658;1.312;2023-03-14T02:14:48;32.83;;;3.88;;
31728;SDS011;18309;43.658;1.312;2023-03-14T02:17:14;27.92;;;3.50;;
31728;SDS011;18309;43.658;1.312;2023-03-14T02:22:35;29.85;;;4.43;;
31728;SDS011;18309;43.658;1.312;2023-03-14T02:25:06;30.73;;;4.15;;
31728;SDS011;18309;43.658;1.312;2023-03-14T02:27:33;34.03;;;5.10;;
31728;SDS011;18309;43.658;1.312;2023-03-14T02:30:01;26.42;;;3.90;;
31728;SDS011;18309;43.658;1.312;2023-03-14T02:32:32;28.88;;;4.22;;
31728;SDS011;18309;43.658;1.312;2023-03-14T02:35:03;24.10;;;3.55;;
31728;SDS011;18309;43.658;1.312;2023-03-14T02:37:35;22.98;;;3.47;;
31728;SDS011;18309;43.658;1.312;2023-03-14T02:40:06;36.97;;;5.75;;
31728;SDS011;18309;43.658;1.312;2023-03-14T02:42:32;29.67;;;3.83;;
31728;SDS011;18309;43.658;1.312;2023-03-14T02:45:41;30.45;;;4.13;;
31728;SDS011;18309;43.658;1.312;2023-03-14T02:47:49;39.95;;;4.55;;
31728;SDS011;18309;43.658;1.312;2023-03-14T02:50:20;38.55;;;4.35;;
31728;SDS011;18309;43.658;1.312;2023-03-14T02:52:48;32.72;;;4.15;;
31728;SDS011;18309;43.658;1.312;2023-03-14T02:55:14;27.70;;;5.00;;
31728;SDS011;18309;43.658;1.312;2023-03-14T02:57:44;24.75;;;4.25;;
31728;SDS011;18309;43.658;1.312;2023-03-14T03:00:10;21.38;;;3.28;;
31728;SDS011;18309;43.658;1.312;2023-03-14T03:02:37;19.23;;;3.08;;
31728;SDS011;18309;43.658;1.312;2023-03-14T03:05:03;24.83;;;3.15;;
31728;SDS011;18309;43.658;1.312;2023-03-14T03:07:29;22.13;;;2.90;;
31728;SDS011;18309;43.658;1.312;2023-03-14T03:09:54;24.45;;;3.90;;
31728;SDS011;18309;43.658;1.312;2023-03-14T03:12:20;25.17;;;3.10;;
31728;SDS011;18309;43.658;1.312;2023-03-14T03:14:45;24.05;;;4.25;;
31728;SDS011;18309;43.658;1.312;2023-03-14T03:17:11;25.98;;;3.25;;
31728;SDS011;18309;43.658;1.312;2023-03-14T03:19:37;25.27;;;3.22;;
31728;SDS011;18309;43.658;1.312;2023-03-14T03:22:02;26.38;;;3.55;;
31728;SDS011;18309;43.658;1.312;2023-03-14T03:24:28;27.88;;;3.75;;
31728;SDS011;18309;43.658;1.312;2023-03-14T03:26:54;19.70;;;3.50;;
31728;SDS011;18309;43.658;1.312;2023-03-14T03:29:20;29.63;;;3.95;;
31728;SDS011;18309;43.658;1.312;2023-03-14T03:31:45;20.08;;;3.42;;
31728;SDS011;18309;43.658;1.312;2023-03-14T03:34:11;22.90;;;4.07;;
31728;SDS011;18309;43.658;1.312;2023-03-14T03:36:38;32.28;;;4.63;;
31728;SDS011;18309;43.658;1.312;2023-03-14T03:39:04;29.60;;;3.58;;
31728;SDS011;18309;43.658;1.312;2023-03-14T03:41:30;25.23;;;3.00;;
31728;SDS011;18309;43.658;1.312;2023-03-14T03:43:56;27.98;;;3.78;;
31728;SDS011;18309;43.658;1.312;2023-03-14T03:46:21;29.38;;;4.25;;
31728;SDS011;18309;43.658;1.312;2023-03-14T03:48:47;22.25;;;3.47;;
31728;SDS011;18309;43.658;1.312;2023-03-14T03:51:13;21.33;;;2.90;;
31728;SDS011;18309;43.658;1.312;2023-03-14T03:53:40;27.85;;;3.63;;
31728;SDS011;18309;43.658;1.312;2023-03-14T03:56:07;30.25;;;4.00;;
31728;SDS011;18309;43.658;1.312;2023-03-14T03:58:33;28.40;;;3.92;;
31728;SDS011;18309;43.658;1.312;2023-03-14T04:00:59;25.60;;;3.47;;
31728;SDS011;18309;43.658;1.312;2023-03-14T04:03:25;35.05;;;4.07;;
31728;SDS011;18309;43.658;1.312;2023-03-14T04:06:00;25.95;;;3.88;;
31728;SDS011;18309;43.658;1.312;2023-03-14T04:08:27;24.83;;;4.30;;
31728;SDS011;18309;43.658;1.312;2023-03-14T04:10:55;16.10;;;3.22;;
31728;SDS011;18309;43.658;1.312;2023-03-14T04:13:25;25.77;;;4.10;;
31728;SDS011;18309;43.658;1.312;2023-03-14T04:15:52;20.98;;;3.22;;
31728;SDS011;18309;43.658;1.312;2023-03-14T04:18:18;16.85;;;3.28;;
31728;SDS011;18309;43.658;1.312;2023-03-14T04:20:45;32.33;;;4.35;;
31728;SDS011;18309;43.658;1.312;2023-03-14T04:23:10;20.00;;;3.15;;
31728;SDS011;18309;43.658;1.312;2023-03-14T04:25:36;25.02;;;3.30;;
31728;SDS011;18309;43.658;1.312;2023-03-14T04:28:02;31.52;;;4.45;;
31728;SDS011;18309;43.658;1.312;2023-03-14T04:30:29;19.08;;;3.13;;
31728;SDS011;18309;43.658;1.312;2023-03-14T04:32:54;20.63;;;3.17;;
31728;SDS011;18309;43.658;1.312;2023-03-14T04:35:20;23.00;;;4.28;;
31728;SDS011;18309;43.658;1.312;2023-03-14T04:37:46;24.15;;;3.03;;
31728;SDS011;18309;43.658;1.312;2023-03-14T04:40:14;20.45;;;3.42;;
31728;SDS011;18309;43.658;1.312;2023-03-14T04:42:40;22.35;;;3.25;;
31728;SDS011;18309;43.658;1.312;2023-03-14T04:45:06;25.75;;;3.33;;
31728;SDS011;18309;43.658;1.312;2023-03-14T04:47:32;30.77;;;4.40;;
31728;SDS011;18309;43.658;1.312;2023-03-14T04:49:58;21.85;;;2.85;;
31728;SDS011;18309;43.658;1.312;2023-03-14T04:52:23;33.03;;;5.55;;
31728;SDS011;18309;43.658;1.312;2023-03-14T04:54:49;17.35;;;3.35;;
31728;SDS011;18309;43.658;1.312;2023-03-14T04:57:15;27.38;;;3.63;;
31728;SDS011;18309;43.658;1.312;2023-03-14T04:59:40;19.98;;;2.45;;
31728;SDS011;18309;43.658;1.312;2023-03-14T05:02:06;20.65;;;3.30;;
31728;SDS011;18309;43.658;1.312;2023-03-14T05:04:32;20.30;;;3.28;;
31728;SDS011;18309;43.658;1.312;2023-03-14T05:06:58;24.48;;;4.55;;
31728;SDS011;18309;43.658;1.312;2023-03-14T05:09:24;14.90;;;2.70;;
31728;SDS011;18309;43.658;1.312;2023-03-14T05:11:50;29.63;;;4.22;;
31728;SDS011;18309;43.658;1.312;2023-03-14T05:14:16;25.80;;;4.03;;
31728;SDS011;18309;43.658;1.312;2023-03-14T05:16:42;28.92;;;4.35;;
31728;SDS011;18309;43.658;1.312;2023-03-14T05:19:08;35.50;;;5.68;;
31728;SDS011;18309;43.658;1.312;2023-03-14T05:21:33;37.20;;;4.45;;
31728;SDS011;18309;43.658;1.312;2023-03-14T05:23:59;44.53;;;5.38;;
31728;SDS011;18309;43.658;1.312;2023-03-14T05:26:24;27.20;;;3.90;;
31728;SDS011;18309;43.658;1.312;2023-03-14T05:28:50;33.90;;;5.57;;
31728;SDS011;18309;43.658;1.312;2023-03-14T05:31:16;35.17;;;6.20;;
31728;SDS011;18309;43.658;1.312;2023-03-14T05:33:42;36.60;;;5.22;;
31728;SDS011;18309;43.658;1.312;2023-03-14T05:36:07;31.65;;;5.30;;
31728;SDS011;18309;43.658;1.312;2023-03-14T05:38:33;39.22;;;5.07;;
31728;SDS011;18309;43.658;1.312;2023-03-14T05:40:59;39.30;;;5.35;;
31728;SDS011;18309;43.658;1.312;2023-03-14T05:43:25;26.55;;;4.90;;
31728;SDS011;18309;43.658;1.312;2023-03-14T05:45:50;36.40;;;5.65;;
31728;SDS011;18309;43.658;1.312;2023-03-14T05:48:16;34.95;;;5.05;;
31728;SDS011;18309;43.658;1.312;2023-03-14T05:50:42;36.30;;;5.55;;
31728;SDS011;18309;43.658;1.312;2023-03-14T05:53:07;33.60;;;6.05;;
31728;SDS011;18309;43.658;1.312;2023-03-14T05:55:33;38.45;;;6.40;;
31728;SDS011;18309;43.658;1.312;2023-03-14T05:57:59;34.72;;;4.90;;
31728;SDS011;18309;43.658;1.312;2023-03-14T06:00:24;36.40;;;5.05;;
31728;SDS011;18309;43.658;1.312;2023-03-14T06:02:50;31.90;;;4.10;;
31728;SDS011;18309;43.658;1.312;2023-03-14T06:05:16;34.40;;;4.60;;
31728;SDS011;18309;43.658;1.312;2023-03-14T06:07:42;35.15;;;5.05;;
31728;SDS011;18309;43.658;1.312;2023-03-14T06:10:08;33.10;;;4.55;;
31728;SDS011;18309;43.658;1.312;2023-03-14T06:12:34;33.30;;;5.03;;
31728;SDS011;18309;43.658;1.312;2023-03-14T06:14:59;33.92;;;4.65;;
31728;SDS011;18309;43.658;1.312;2023-03-14T06:17:25;37.10;;;5.47;;
31728;SDS011;18309;43.658;1.312;2023-03-14T06:19:50;36.50;;;5.90;;
31728;SDS011;18309;43.658;1.312;2023-03-14T06:22:16;34.92;;;4.63;;
31728;SDS011;18309;43.658;1.312;2023-03-14T06:24:42;31.00;;;4.63;;
31728;SDS011;18309;43.658;1.312;2023-03-14T06:27:08;33.65;;;4.65;;
31728;SDS011;18309;43.658;1.312;2023-03-14T06:29:33;36.22;;;5.70;;
31728;SDS011;18309;43.658;1.312;2023-03-14T06:31:59;37.90;;;4.97;;
31728;SDS011;18309;43.658;1.312;2023-03-14T06:34:25;37.47;;;5.03;;
31728;SDS011;18309;43.658;1.312;2023-03-14T06:36:50;33.80;;;6.00;;
31728;SDS011;18309;43.658;1.312;2023-03-14T06:39:16;39.38;;;4.80;;
31728;SDS011;18309;43.658;1.312;2023-03-14T06:41:41;37.65;;;5.05;;
31728;SDS011;18309;43.658;1.312;2023-03-14T06:44:07;35.58;;;5.07;;
31728;SDS011;18309;43.658;1.312;2023-03-14T06:46:33;32.25;;;5.22;;
31728;SDS011;18309;43.658;1.312;2023-03-14T06:48:58;46.20;;;5.25;;
31728;SDS011;18309;43.658;1.312;2023-03-14T06:51:24;41.35;;;7.03;;
31728;SDS011;18309;43.658;1.312;2023-03-14T06:53:50;48.95;;;6.40;;
31728;SDS011;18309;43.658;1.312;2023-03-14T06:56:15;43.70;;;6.20;;
31728;SDS011;18309;43.658;1.312;2023-03-14T06:58:41;44.65;;;5.75;;
31728;SDS011;18309;43.658;1.312;2023-03-14T07:01:21;34.75;;;7.03;;
31728;SDS011;18309;43.658;1.312;2023-03-14T07:03:49;49.63;;;7.20;;
31728;SDS011;18309;43.658;1.312;2023-03-14T07:06:15;45.65;;;5.63;;
31728;SDS011;18309;43.658;1.312;2023-03-14T07:08:40;45.17;;;6.22;;
31728;SDS011;18309;43.658;1.312;2023-03-14T07:11:07;53.90;;;7.13;;
31728;SDS011;18309;43.658;1.312;2023-03-14T07:13:32;53.13;;;6.45;;
31728;SDS011;18309;43.658;1.312;2023-03-14T07:15:58;48.28;;;6.55;;
31728;SDS011;18309;43.658;1.312;2023-03-14T07:18:24;52.33;;;7.30;;
31728;SDS011;18309;43.658;1.312;2023-03-14T07:20:49;53.15;;;7.28;;
31728;SDS011;18309;43.658;1.312;2023-03-14T07:23:15;54.90;;;7.45;;
31728;SDS011;18309;43.658;1.312;2023-03-14T07:25:41;61.13;;;8.48;;
31728;SDS011;18309;43.658;1.312;2023-03-14T07:28:06;60.53;;;6.95;;
31728;SDS011;18309;43.658;1.312;2023-03-14T07:30:32;69.43;;;8.65;;
31728;SDS011;18309;43.658;1.312;2023-03-14T07:32:58;48.88;;;8.05;;
31728;SDS011;18309;43.658;1.312;2023-03-14T07:35:23;71.40;;;8.73;;
31728;SDS011;18309;43.658;1.312;2023-03-14T07:37:49;63.78;;;9.43;;
31728;SDS011;18309;43.658;1.312;2023-03-14T07:40:14;54.40;;;7.40;;
31728;SDS011;18309;43.658;1.312;2023-03-14T07:42:41;46.78;;;5.78;;
31728;SDS011;18309;43.658;1.312;2023-03-14T07:45:08;59.88;;;7.15;;
31728;SDS011;18309;43.658;1.312;2023-03-14T07:47:35;54.90;;;7.18;;
31728;SDS011;18309;43.658;1.312;2023-03-14T07:50:01;61.72;;;7.28;;
31728;SDS011;18309;43.658;1.312;2023-03-14T07:52:27;64.88;;;7.30;;
31728;SDS011;18309;43.658;1.312;2023-03-14T07:54:53;68.55;;;8.32;;
31728;SDS011;18309;43.658;1.312;2023-03-14T07:57:18;47.72;;;7.38;;
31728;SDS011;18309;43.658;1.312;2023-03-14T07:59:44;55.22;;;7.38;;
31728;SDS011;18309;43.658;1.312;2023-03-14T08:02:10;64.57;;;7.57;;
31728;SDS011;18309;43.658;1.312;2023-03-14T08:04:37;80.32;;;9.93;;
31728;SDS011;18309;43.658;1.312;2023-03-14T08:07:03;64.22;;;7.90;;
31728;SDS011;18309;43.658;1.312;2023-03-14T08:09:29;51.63;;;7.65;;
31728;SDS011;18309;43.658;1.312;2023-03-14T08:11:55;60.47;;;8.77;;
31728;SDS011;18309;43.658;1.312;2023-03-14T08:14:20;57.80;;;7.90;;
31728;SDS011;18309;43.658;1.312;2023-03-14T08:16:48;56.30;;;7.28;;
31728;SDS011;18309;43.658;1.312;2023-03-14T08:19:15;70.47;;;8.18;;
31728;SDS011;18309;43.658;1.312;2023-03-14T08:21:41;58.70;;;7.53;;
31728;SDS011;18309;43.658;1.312;2023-03-14T08:24:06;48.72;;;7.70;;
31728;SDS011;18309;43.658;1.312;2023-03-14T08:26:32;53.45;;;8.55;;
31728;SDS011;18309;43.658;1.312;2023-03-14T08:28:58;71.15;;;9.25;;
31728;SDS011;18309;43.658;1.312;2023-03-14T08:31:24;61.50;;;9.05;;
31728;SDS011;18309;43.658;1.312;2023-03-14T08:33:50;69.20;;;8.25;;
31728;SDS011;18309;43.658;1.312;2023-03-14T08:36:17;53.25;;;8.30;;
31728;SDS011;18309;43.658;1.312;2023-03-14T08:38:43;60.17;;;8.70;;
31728;SDS011;18309;43.658;1.312;2023-03-14T08:41:09;51.60;;;8.63;;
31728;SDS011;18309;43.658;1.312;2023-03-14T08:43:35;62.72;;;8.30;;
31728;SDS011;18309;43.658;1.312;2023-03-14T08:46:01;61.20;;;7.97;;
31728;SDS011;18309;43.658;1.312;2023-03-14T08:48:28;57.78;;;7.18;;
31728;SDS011;18309;43.658;1.312;2023-03-14T08:50:55;56.85;;;7.45;;
31728;SDS011;18309;43.658;1.312;2023-03-14T08:53:31;43.80;;;7.22;;
31728;SDS011;18309;43.658;1.312;2023-03-14T08:55:57;49.58;;;7.63;;
31728;SDS011;18309;43.658;1.312;2023-03-14T08:58:23;82.80;;;11.45;;
31728;SDS011;18309;43.658;1.312;2023-03-14T09:00:48;50.13;;;7.70;;
31728;SDS011;18309;43.658;1.312;2023-03-14T09:03:15;59.00;;;7.97;;
31728;SDS011;18309;43.658;1.312;2023-03-14T09:05:40;53.65;;;8.10;;
31728;SDS011;18309;43.658;1.312;2023-03-14T09:08:06;54.22;;;7.68;;
31728;SDS011;18309;43.658;1.312;2023-03-14T09:10:32;43.58;;;7.20;;
31728;SDS011;18309;43.658;1.312;2023-03-14T09:12:57;19.02;;;3.83;;
31728;SDS011;18309;43.658;1.312;2023-03-14T09:15:23;22.20;;;3.03;;
31728;SDS011;18309;43.658;1.312;2023-03-14T09:17:49;25.48;;;4.15;;
31728;SDS011;18309;43.658;1.312;2023-03-14T09:20:15;24.95;;;3.25;;
31728;SDS011;18309;43.658;1.312;2023-03-14T09:22:41;20.02;;;3.25;;
31728;SDS011;18309;43.658;1.312;2023-03-14T09:25:07;20.25;;;2.45;;
31728;SDS011;18309;43.658;1.312;2023-03-14T09:27:33;28.05;;;3.40;;
31728;SDS011;18309;43.658;1.312;2023-03-14T09:29:59;19.45;;;3.75;;
31728;SDS011;18309;43.658;1.312;2023-03-14T09:32:24;22.08;;;3.13;;
31728;SDS011;18309;43.658;1.312;2023-03-14T09:34:50;22.83;;;3.47;;
31728;SDS011;18309;43.658;1.312;2023-03-14T09:37:15;27.40;;;3.90;;
31728;SDS011;18309;43.658;1.312;2023-03-14T09:39:42;32.42;;;4.70;;
31728;SDS011;18309;43.658;1.312;2023-03-14T09:42:08;42.63;;;6.07;;
31728;SDS011;18309;43.658;1.312;2023-03-14T09:47:17;45.17;;;6.45;;
31728;SDS011;18309;43.658;1.312;2023-03-14T09:49:45;53.95;;;7.32;;
31728;SDS011;18309;43.658;1.312;2023-03-14T09:52:15;62.05;;;7.82;;
31728;SDS011;18309;43.658;1.312;2023-03-14T09:55:03;50.47;;;7.05;;
31728;SDS011;18309;43.658;1.312;2023-03-14T09:57:32;60.40;;;7.25;;
31728;SDS011;18309;43.658;1.312;2023-03-14T10:00:01;54.35;;;5.88;;
31728;SDS011;18309;43.658;1.312;2023-03-14T10:02:39;38.10;;;4.75;;
31728;SDS011;18309;43.658;1.312;2023-03-14T10:05:16;41.55;;;5.40;;
31728;SDS011;18309;43.658;1.312;2023-03-14T10:07:44;44.15;;;4.55;;
31728;SDS011;18309;43.658;1.312;2023-03-14T10:10:17;35.35;;;4.18;;
31728;SDS011;18309;43.658;1.312;2023-03-14T10:12:46;35.42;;;4.40;;
31728;SDS011;18309;43.658;1.312;2023-03-14T10:15:13;33.78;;;4.57;;
31728;SDS011;18309;43.658;1.312;2023-03-14T10:17:48;42.17;;;6.40;;
31728;SDS011;18309;43.658;1.312;2023-03-14T10:20:28;35.70;;;4.65;;
31728;SDS011;18309;43.658;1.312;2023-03-14T10:23:23;42.15;;;5.95;;
31728;SDS011;18309;43.658;1.312;2023-03-14T10:25:58;31.73;;;4.72;;
31728;SDS011;18309;43.658;1.312;2023-03-14T10:28:30;35.00;;;5.47;;
31728;SDS011;18309;43.658;1.312;2023-03-14T10:30:58;32.63;;;3.93;;
31728;SDS011;18309;43.658;1.312;2023-03-14T10:33:28;38.47;;;4.53;;
31728;SDS011;18309;43.658;1.312;2023-03-14T10:35:59;27.48;;;3.35;;
31728;SDS011;18309;43.658;1.312;2023-03-14T10:38:28;33.72;;;5.35;;
31728;SDS011;18309;43.658;1.312;2023-03-14T10:40:59;29.77;;;3.95;;
31728;SDS011;18309;43.658;1.312;2023-03-14T10:45:59;19.05;;;2.63;;
31728;SDS011;18309;43.658;1.312;2023-03-14T10:48:31;24.02;;;3.83;;
31728;SDS011;18309;43.658;1.312;2023-03-14T10:53:34;26.60;;;4.07;;
31728;SDS011;18309;43.658;1.312;2023-03-14T10:56:03;16.08;;;2.95;;
31728;SDS011;18309;43.658;1.312;2023-03-14T10:58:31;23.20;;;2.80;;
31728;SDS011;18309;43.658;1.312;2023-03-14T11:06:59;13.75;;;1.92;;
31728;SDS011;18309;43.658;1.312;2023-03-14T11:10:22;16.05;;;2.35;;
31728;SDS011;18309;43.658;1.312;2023-03-14T11:15:35;19.00;;;1.90;;
31728;SDS011;18309;43.658;1.312;2023-03-14T11:23:50;13.38;;;1.88;;
31728;SDS011;18309;43.658;1.312;2023-03-14T11:26:57;12.13;;;1.55;;
31728;SDS011;18309;43.658;1.312;2023-03-14T11:29:39;10.88;;;1.58;;
31728;SDS011;18309;43.658;1.312;2023-03-14T11:32:12;17.45;;;2.00;;
31728;SDS011;18309;43.658;1.312;2023-03-14T11:34:51;20.30;;;2.50;;
31728;SDS011;18309;43.658;1.312;2023-03-14T11:39:58;19.45;;;2.50;;
31728;SDS011;18309;43.658;1.312;2023-03-14T11:42:57;12.30;;;2.17;;
31728;SDS011;18309;43.658;1.312;2023-03-14T11:45:27;11.90;;;1.45;;
31728;SDS011;18309;43.658;1.312;2023-03-14T11:48:07;19.23;;;2.38;;
31728;SDS011;18309;43.658;1.312;2023-03-14T11:50:36;16.42;;;1.80;;
31728;SDS011;18309;43.658;1.312;2023-03-14T11:53:05;19.45;;;1.92;;
31728;SDS011;18309;43.658;1.312;2023-03-14T11:55:36;10.60;;;1.60;;
31728;SDS011;18309;43.658;1.312;2023-03-14T11:58:27;7.68;;;1.00;;
31728;SDS011;18309;43.658;1.312;2023-03-14T12:00:54;10.82;;;1.25;;
31728;SDS011;18309;43.658;1.312;2023-03-14T12:08:57;13.55;;;1.88;;
31728;SDS011;18309;43.658;1.312;2023-03-14T12:14:26;8.65;;;1.38;;
31728;SDS011;18309;43.658;1.312;2023-03-14T12:16:59;11.95;;;1.58;;
31728;SDS011;18309;43.658;1.312;2023-03-14T12:19:30;7.90;;;1.27;;
31728;SDS011;18309;43.658;1.312;2023-03-14T12:24:37;10.00;;;1.67;;
31728;SDS011;18309;43.658;1.312;2023-03-14T12:27:09;13.73;;;1.27;;
31728;SDS011;18309;43.658;1.312;2023-03-14T12:29:59;9.23;;;1.17;;
31728;SDS011;18309;43.658;1.312;2023-03-14T12:32:25;13.35;;;2.05;;
31728;SDS011;18309;43.658;1.312;2023-03-14T12:34:51;17.83;;;2.55;;
31728;SDS011;18309;43.658;1.312;2023-03-14T12:42:45;16.90;;;2.25;;
31728;SDS011;18309;43.658;1.312;2023-03-14T12:45:32;26.98;;;2.85;;
31728;SDS011;18309;43.658;1.312;2023-03-14T12:50:32;21.50;;;2.28;;
31728;SDS011;18309;43.658;1.312;2023-03-14T12:56:32;20.15;;;3.15;;
31728;SDS011;18309;43.658;1.312;2023-03-14T13:01:05;14.38;;;1.77;;
31728;SDS011;18309;43.658;1.312;2023-03-14T13:03:44;15.98;;;1.70;;
31728;SDS011;18309;43.658;1.312;2023-03-14T13:06:12;15.45;;;1.92;;
31728;SDS011;18309;43.658;1.312;2023-03-14T13:08:42;12.07;;;1.65;;
31728;SDS011;18309;43.658;1.312;2023-03-14T13:11:12;13.65;;;2.13;;
31728;SDS011;18309;43.658;1.312;2023-03-14T13:13:42;12.10;;;1.52;;
31728;SDS011;18309;43.658;1.312;2023-03-14T13:16:14;22.85;;;1.85;;
31728;SDS011;18309;43.658;1.312;2023-03-14T13:23:38;10.77;;;1.90;;
31728;SDS011;18309;43.658;1.312;2023-03-14T13:26:13;22.80;;;1.90;;
31728;SDS011;18309;43.658;1.312;2023-03-14T13:28:40;17.30;;;1.65;;
31728;SDS011;18309;43.658;1.312;2023-03-14T13:31:12;15.38;;;2.40;;
31728;SDS011;18309;43.658;1.312;2023-03-14T13:33:56;16.52;;;1.70;;
31728;SDS011;18309;43.658;1.312;2023-03-14T13:36:26;6.88;;;0.80;;
31728;SDS011;18309;43.658;1.312;2023-03-14T13:38:56;6.13;;;0.65;;
31728;SDS011;18309;43.658;1.312;2023-03-14T13:41:23;1.70;;;0.30;;
31728;SDS011;18309;43.658;1.312;2023-03-14T13:43:50;3.13;;;0.60;;
31728;SDS011;18309;43.658;1.312;2023-03-14T13:46:19;1.10;;;0.30;;
31728;SDS011;18309;43.658;1.312;2023-03-14T13:48:57;1.40;;;0.22;;
31728;SDS011;18309;43.658;1.312;2023-03-14T13:51:25;1.63;;;0.32;;
31728;SDS011;18309;43.658;1.312;2023-03-14T13:56:24;6.95;;;0.95;;
31728;SDS011;18309;43.658;1.312;2023-03-14T13:58:52;3.00;;;0.52;;
31728;SDS011;18309;43.658;1.312;2023-03-14T14:01:19;7.63;;;0.63;;
31728;SDS011;18309;43.658;1.312;2023-03-14T14:03:48;6.65;;;0.73;;
31728;SDS011;18309;43.658;1.312;2023-03-14T14:06:19;5.05;;;0.73;;
31728;SDS011;18309;43.658;1.312;2023-03-14T14:09:02;10.00;;;1.08;;
31728;SDS011;18309;43.658;1.312;2023-03-14T14:11:41;7.32;;;0.45;;
31728;SDS011;18309;43.658;1.312;2023-03-14T14:14:18;5.85;;;0.90;;
31728;SDS011;18309;43.658;1.312;2023-03-14T14:16:45;10.07;;;1.25;;
31728;SDS011;18309;43.658;1.312;2023-03-14T14:19:12;5.53;;;0.80;;
31728;SDS011;18309;43.658;1.312;2023-03-14T14:21:40;6.20;;;1.08;;
31728;SDS011;18309;43.658;1.312;2023-03-14T14:24:08;6.70;;;0.93;;
31728;SDS011;18309;43.658;1.312;2023-03-14T14:26:39;5.00;;;0.85;;
31728;SDS011;18309;43.658;1.312;2023-03-14T14:29:16;9.95;;;1.52;;
31728;SDS011;18309;43.658;1.312;2023-03-14T14:32:01;9.02;;;1.08;;
31728;SDS011;18309;43.658;1.312;2023-03-14T14:34:28;9.25;;;1.17;;
31728;SDS011;18309;43.658;1.312;2023-03-14T14:36:54;7.78;;;0.98;;
31728;SDS011;18309;43.658;1.312;2023-03-14T14:39:21;8.82;;;1.27;;
31728;SDS011;18309;43.658;1.312;2023-03-14T14:41:50;17.33;;;2.00;;
31728;SDS011;18309;43.658;1.312;2023-03-14T14:44:38;11.00;;;1.58;;
31728;SDS011;18309;43.658;1.312;2023-03-14T14:47:03;8.27;;;1.42;;
31728;SDS011;18309;43.658;1.312;2023-03-14T14:49:30;4.22;;;1.23;;
31728;SDS011;18309;43.658;1.312;2023-03-14T14:52:00;8.45;;;1.48;;
31728;SDS011;18309;43.658;1.312;2023-03-14T14:54:33;3.40;;;0.80;;
31728;SDS011;18309;43.658;1.312;2023-03-14T14:57:05;8.93;;;1.50;;
31728;SDS011;18309;43.658;1.312;2023-03-14T14:59:42;10.60;;;1.33;;
31728;SDS011;18309;43.658;1.312;2023-03-14T15:02:35;10.27;;;1.15;;
31728;SDS011;18309;43.658;1.312;2023-03-14T15:05:15;4.40;;;1.02;;
31728;SDS011;18309;43.658;1.312;2023-03-14T15:07:43;11.75;;;0.98;;
31728;SDS011;18309;43.658;1.312;2023-03-14T15:10:10;6.65;;;1.10;;
31728;SDS011;18309;43.658;1.312;2023-03-14T15:12:40;7.43;;;1.45;;
31728;SDS011;18309;43.658;1.312;2023-03-14T15:15:06;13.93;;;1.48;;
31728;SDS011;18309;43.658;1.312;2023-03-14T15:17:33;6.32;;;1.30;;
31728;SDS011;18309;43.658;1.312;2023-03-14T15:20:01;5.75;;;0.85;;
31728;SDS011;18309;43.658;1.312;2023-03-14T15:22:31;4.38;;;0.82;;
31728;SDS011;18309;43.658;1.312;2023-03-14T15:24:56;5.80;;;0.90;;
31728;SDS011;18309;43.658;1.312;2023-03-14T15:27:22;9.98;;;1.38;;
31728;SDS011;18309;43.658;1.312;2023-03-14T15:29:48;4.38;;;0.80;;
31728;SDS011;18309;43.658;1.312;2023-03-14T15:32:14;4.78;;;0.80;;
31728;SDS011;18309;43.658;1.312;2023-03-14T15:34:41;8.80;;;1.17;;
31728;SDS011;18309;43.658;1.312;2023-03-14T15:37:11;3.65;;;0.50;;
31728;SDS011;18309;43.658;1.312;2023-03-14T15:39:38;5.22;;;0.80;;
31728;SDS011;18309;43.658;1.312;2023-03-14T15:42:04;3.00;;;0.35;;
31728;SDS011;18309;43.658;1.312;2023-03-14T15:44:30;6.25;;;0.45;;
31728;SDS011;18309;43.658;1.312;2023-03-14T15:46:56;2.45;;;0.52;;